Terminal Aerodrome Forecast
Issued by NWS Sioux Falls, SD

Home | Current Version | Previous Version | Text Only | Print | Product List | Glossary On
Versions: 1 2 3 4 5 6 7 8 9 10 11 12 13 14 15 16 17 18 19 20 21 22 23 24 25 26 27 28 29 30
000
FTUS43 KFSD 301720
TAFSUX
TAF
KSUX 301720Z 3018/3118 16010KT P6SM FEW010
     FM310000 17008KT P6SM BKN200
     FM310600 VRB04KT P6SM SCT070 SCT250
     FM311500 17005KT P6SM OVC006=

USA.gov is the U.S. government's official web portal to all federal, state and local government web resources and services.